sensor_id;sensor_type;location;lat;lon;timestamp;temperature;humidity
43987;DHT22;29650;47.378;8.300;2023-05-19T00:00:18;13.10;68.00
43987;DHT22;29650;47.378;8.300;2023-05-19T00:03:19;13.00;67.50
43987;DHT22;29650;47.378;8.300;2023-05-19T00:05:47;13.00;68.20
43987;DHT22;29650;47.378;8.300;2023-05-19T00:08:16;13.10;69.00
43987;DHT22;29650;47.378;8.300;2023-05-19T00:11:01;13.10;69.20
43987;DHT22;29650;47.378;8.300;2023-05-19T00:13:42;13.00;69.60
43987;DHT22;29650;47.378;8.300;2023-05-19T00:16:45;13.00;68.00
43987;DHT22;29650;47.378;8.300;2023-05-19T00:19:14;12.90;69.70
43987;DHT22;29650;47.378;8.300;2023-05-19T00:22:11;13.00;70.20
43987;DHT22;29650;47.378;8.300;2023-05-19T00:24:38;13.10;70.80
43987;DHT22;29650;47.378;8.300;2023-05-19T00:27:04;13.00;70.60
43987;DHT22;29650;47.378;8.300;2023-05-19T00:29:31;13.00;69.70
43987;DHT22;29650;47.378;8.300;2023-05-19T00:31:58;12.80;69.40
43987;DHT22;29650;47.378;8.300;2023-05-19T00:34:27;12.70;71.40
43987;DHT22;29650;47.378;8.300;2023-05-19T00:36:54;12.90;70.20
43987;DHT22;29650;47.378;8.300;2023-05-19T00:39:42;12.90;70.40
43987;DHT22;29650;47.378;8.300;2023-05-19T00:42:09;12.80;70.40
43987;DHT22;29650;47.378;8.300;2023-05-19T00:44:39;12.80;69.80
43987;DHT22;29650;47.378;8.300;2023-05-19T00:47:07;12.70;71.10
43987;DHT22;29650;47.378;8.300;2023-05-19T00:49:35;12.80;71.60
43987;DHT22;29650;47.378;8.300;2023-05-19T00:52:05;12.80;71.00
43987;DHT22;29650;47.378;8.300;2023-05-19T00:54:38;12.50;71.50
43987;DHT22;29650;47.378;8.300;2023-05-19T00:57:05;12.70;70.50
43987;DHT22;29650;47.378;8.300;2023-05-19T00:59:32;12.70;70.80
43987;DHT22;29650;47.378;8.300;2023-05-19T01:01:59;12.70;70.70
43987;DHT22;29650;47.378;8.300;2023-05-19T01:04:35;12.70;71.70
43987;DHT22;29650;47.378;8.300;2023-05-19T01:07:11;12.70;71.80
43987;DHT22;29650;47.378;8.300;2023-05-19T01:09:38;12.70;71.40
43987;DHT22;29650;47.378;8.300;2023-05-19T01:12:06;12.50;71.20
43987;DHT22;29650;47.378;8.300;2023-05-19T01:14:34;12.50;72.00
43987;DHT22;29650;47.378;8.300;2023-05-19T01:17:20;12.60;70.90
43987;DHT22;29650;47.378;8.300;2023-05-19T01:20:07;12.50;72.30
43987;DHT22;29650;47.378;8.300;2023-05-19T01:23:00;12.60;72.90
43987;DHT22;29650;47.378;8.300;2023-05-19T01:25:49;12.70;71.40
43987;DHT22;29650;47.378;8.300;2023-05-19T01:31:26;12.80;71.30
43987;DHT22;29650;47.378;8.300;2023-05-19T01:33:54;12.70;71.60
43987;DHT22;29650;47.378;8.300;2023-05-19T01:36:32;12.60;73.10
43987;DHT22;29650;47.378;8.300;2023-05-19T01:39:00;12.50;74.00
43987;DHT22;29650;47.378;8.300;2023-05-19T01:41:28;12.70;71.70
43987;DHT22;29650;47.378;8.300;2023-05-19T01:44:03;12.70;71.80
43987;DHT22;29650;47.378;8.300;2023-05-19T01:46:32;12.60;72.30
43987;DHT22;29650;47.378;8.300;2023-05-19T01:48:59;12.60;73.60
43987;DHT22;29650;47.378;8.300;2023-05-19T01:51:29;12.60;73.00
43987;DHT22;29650;47.378;8.300;2023-05-19T01:53:56;12.70;72.70
43987;DHT22;29650;47.378;8.300;2023-05-19T01:56:38;12.70;72.70
43987;DHT22;29650;47.378;8.300;2023-05-19T01:59:20;12.60;73.50
43987;DHT22;29650;47.378;8.300;2023-05-19T02:05:06;12.60;73.20
43987;DHT22;29650;47.378;8.300;2023-05-19T02:07:41;12.60;73.10
43987;DHT22;29650;47.378;8.300;2023-05-19T02:10:22;12.60;73.40
43987;DHT22;29650;47.378;8.300;2023-05-19T02:12:54;12.60;72.40
43987;DHT22;29650;47.378;8.300;2023-05-19T02:15:29;12.60;72.70
43987;DHT22;29650;47.378;8.300;2023-05-19T02:18:01;12.50;73.40
43987;DHT22;29650;47.378;8.300;2023-05-19T02:20:29;12.50;72.40
43987;DHT22;29650;47.378;8.300;2023-05-19T02:23:10;12.50;73.30
43987;DHT22;29650;47.378;8.300;2023-05-19T02:25:40;12.30;73.80
43987;DHT22;29650;47.378;8.300;2023-05-19T02:28:08;12.40;74.20
43987;DHT22;29650;47.378;8.300;2023-05-19T02:30:35;12.40;75.00
43987;DHT22;29650;47.378;8.300;2023-05-19T02:35:59;12.40;75.60
43987;DHT22;29650;47.378;8.300;2023-05-19T02:38:28;12.30;76.20
43987;DHT22;29650;47.378;8.300;2023-05-19T02:40:56;12.40;76.70
43987;DHT22;29650;47.378;8.300;2023-05-19T02:43:23;12.30;76.70
43987;DHT22;29650;47.378;8.300;2023-05-19T02:45:50;12.20;77.10
43987;DHT22;29650;47.378;8.300;2023-05-19T02:48:18;12.20;77.90
43987;DHT22;29650;47.378;8.300;2023-05-19T02:50:45;12.30;76.20
43987;DHT22;29650;47.378;8.300;2023-05-19T02:53:12;12.40;75.20
43987;DHT22;29650;47.378;8.300;2023-05-19T02:55:39;12.30;75.10
43987;DHT22;29650;47.378;8.300;2023-05-19T02:58:06;10.90;76.80
43987;DHT22;29650;47.378;8.300;2023-05-19T03:00:33;12.30;76.70
43987;DHT22;29650;47.378;8.300;2023-05-19T03:03:00;12.00;78.20
43987;DHT22;29650;47.378;8.300;2023-05-19T03:05:31;12.00;78.00
43987;DHT22;29650;47.378;8.300;2023-05-19T03:07:59;12.10;77.70
43987;DHT22;29650;47.378;8.300;2023-05-19T03:10:26;12.00;77.80
43987;DHT22;29650;47.378;8.300;2023-05-19T03:12:53;12.10;78.30
43987;DHT22;29650;47.378;8.300;2023-05-19T03:15:20;12.00;78.50
43987;DHT22;29650;47.378;8.300;2023-05-19T03:17:51;11.40;78.10
43987;DHT22;29650;47.378;8.300;2023-05-19T03:20:23;11.90;80.40
43987;DHT22;29650;47.378;8.300;2023-05-19T03:23:02;12.00;78.80
43987;DHT22;29650;47.378;8.300;2023-05-19T03:25:29;12.00;79.70
43987;DHT22;29650;47.378;8.300;2023-05-19T03:27:56;12.00;79.40
43987;DHT22;29650;47.378;8.300;2023-05-19T03:30:23;11.90;79.70
43987;DHT22;29650;47.378;8.300;2023-05-19T03:32:50;11.90;80.40
43987;DHT22;29650;47.378;8.300;2023-05-19T03:35:17;11.80;81.20
43987;DHT22;29650;47.378;8.300;2023-05-19T03:37:44;12.00;80.90
43987;DHT22;29650;47.378;8.300;2023-05-19T03:40:18;11.90;80.80
43987;DHT22;29650;47.378;8.300;2023-05-19T03:42:45;11.30;80.20
43987;DHT22;29650;47.378;8.300;2023-05-19T03:45:13;12.00;80.20
43987;DHT22;29650;47.378;8.300;2023-05-19T03:47:41;11.90;80.30
43987;DHT22;29650;47.378;8.300;2023-05-19T03:50:09;11.90;80.60
43987;DHT22;29650;47.378;8.300;2023-05-19T03:52:36;11.80;80.80
43987;DHT22;29650;47.378;8.300;2023-05-19T03:55:07;11.70;81.90
43987;DHT22;29650;47.378;8.300;2023-05-19T04:00:24;11.80;82.20
43987;DHT22;29650;47.378;8.300;2023-05-19T04:02:51;12.00;81.40
43987;DHT22;29650;47.378;8.300;2023-05-19T04:05:29;12.00;80.40
43987;DHT22;29650;47.378;8.300;2023-05-19T04:07:57;11.90;81.60
43987;DHT22;29650;47.378;8.300;2023-05-19T04:10:39;11.80;82.80
43987;DHT22;29650;47.378;8.300;2023-05-19T04:13:08;11.80;82.60
43987;DHT22;29650;47.378;8.300;2023-05-19T04:15:44;11.80;82.60
43987;DHT22;29650;47.378;8.300;2023-05-19T04:18:11;12.70;84.50
43987;DHT22;29650;47.378;8.300;2023-05-19T04:20:38;11.70;85.00
43987;DHT22;29650;47.378;8.300;2023-05-19T04:23:05;11.60;85.00
43987;DHT22;29650;47.378;8.300;2023-05-19T04:25:46;11.20;84.80
43987;DHT22;29650;47.378;8.300;2023-05-19T04:28:15;11.60;84.30
43987;DHT22;29650;47.378;8.300;2023-05-19T04:30:42;11.60;84.80
43987;DHT22;29650;47.378;8.300;2023-05-19T04:33:11;11.70;85.60
43987;DHT22;29650;47.378;8.300;2023-05-19T04:35:47;11.70;85.60
43987;DHT22;29650;47.378;8.300;2023-05-19T04:38:15;11.50;86.00
43987;DHT22;29650;47.378;8.300;2023-05-19T04:40:45;11.60;86.00
43987;DHT22;29650;47.378;8.300;2023-05-19T04:43:16;11.70;85.10
43987;DHT22;29650;47.378;8.300;2023-05-19T04:45:43;11.70;85.80
43987;DHT22;29650;47.378;8.300;2023-05-19T04:48:11;11.60;86.00
43987;DHT22;29650;47.378;8.300;2023-05-19T04:50:43;11.70;86.30
43987;DHT22;29650;47.378;8.300;2023-05-19T04:53:16;11.70;86.10
43987;DHT22;29650;47.378;8.300;2023-05-19T04:55:49;11.50;86.90
43987;DHT22;29650;47.378;8.300;2023-05-19T04:58:18;11.70;87.30
43987;DHT22;29650;47.378;8.300;2023-05-19T05:00:48;11.50;87.60
43987;DHT22;29650;47.378;8.300;2023-05-19T05:03:15;11.60;87.30
43987;DHT22;29650;47.378;8.300;2023-05-19T05:05:43;11.80;85.60
43987;DHT22;29650;47.378;8.300;2023-05-19T05:08:12;11.90;85.90
43987;DHT22;29650;47.378;8.300;2023-05-19T05:10:41;11.80;87.40
43987;DHT22;29650;47.378;8.300;2023-05-19T05:13:08;11.80;87.30
43987;DHT22;29650;47.378;8.300;2023-05-19T05:15:37;11.80;86.50
43987;DHT22;29650;47.378;8.300;2023-05-19T05:18:13;11.90;86.50
43987;DHT22;29650;47.378;8.300;2023-05-19T05:20:41;11.80;87.10
43987;DHT22;29650;47.378;8.300;2023-05-19T05:23:17;11.90;85.60
43987;DHT22;29650;47.378;8.300;2023-05-19T05:25:46;11.90;85.90
43987;DHT22;29650;47.378;8.300;2023-05-19T05:28:13;11.90;84.80
43987;DHT22;29650;47.378;8.300;2023-05-19T05:30:46;12.00;85.40
43987;DHT22;29650;47.378;8.300;2023-05-19T05:33:13;11.90;85.30
43987;DHT22;29650;47.378;8.300;2023-05-19T05:35:41;11.90;87.60
43987;DHT22;29650;47.378;8.300;2023-05-19T05:38:08;11.60;86.40
43987;DHT22;29650;47.378;8.300;2023-05-19T05:40:41;12.00;85.00
43987;DHT22;29650;47.378;8.300;2023-05-19T05:43:08;12.00;85.40
43987;DHT22;29650;47.378;8.300;2023-05-19T05:45:35;11.80;85.90
43987;DHT22;29650;47.378;8.300;2023-05-19T05:48:05;11.90;85.90
43987;DHT22;29650;47.378;8.300;2023-05-19T05:50:33;12.00;84.80
43987;DHT22;29650;47.378;8.300;2023-05-19T05:53:09;12.10;85.70
43987;DHT22;29650;47.378;8.300;2023-05-19T05:55:43;11.90;85.00
43987;DHT22;29650;47.378;8.300;2023-05-19T05:58:10;11.80;85.60
43987;DHT22;29650;47.378;8.300;2023-05-19T06:00:54;11.90;83.80
43987;DHT22;29650;47.378;8.300;2023-05-19T06:03:24;12.10;84.70
43987;DHT22;29650;47.378;8.300;2023-05-19T06:05:51;12.10;84.20
43987;DHT22;29650;47.378;8.300;2023-05-19T06:08:24;12.10;83.50
43987;DHT22;29650;47.378;8.300;2023-05-19T06:10:56;12.20;83.70
43987;DHT22;29650;47.378;8.300;2023-05-19T06:13:24;12.10;83.70
43987;DHT22;29650;47.378;8.300;2023-05-19T06:15:51;12.20;84.50
43987;DHT22;29650;47.378;8.300;2023-05-19T06:18:18;11.30;82.60
43987;DHT22;29650;47.378;8.300;2023-05-19T06:21:14;12.20;83.00
43987;DHT22;29650;47.378;8.300;2023-05-19T06:23:55;12.00;86.00
43987;DHT22;29650;47.378;8.300;2023-05-19T06:26:31;12.30;84.10
43987;DHT22;29650;47.378;8.300;2023-05-19T06:29:08;12.20;84.80
43987;DHT22;29650;47.378;8.300;2023-05-19T06:31:42;12.40;84.80
43987;DHT22;29650;47.378;8.300;2023-05-19T06:34:10;12.40;84.30
43987;DHT22;29650;47.378;8.300;2023-05-19T06:36:42;12.40;84.90
43987;DHT22;29650;47.378;8.300;2023-05-19T06:39:09;11.90;83.80
43987;DHT22;29650;47.378;8.300;2023-05-19T06:41:36;12.20;86.00
43987;DHT22;29650;47.378;8.300;2023-05-19T06:44:03;12.30;85.90
43987;DHT22;29650;47.378;8.300;2023-05-19T06:46:30;12.30;84.20
43987;DHT22;29650;47.378;8.300;2023-05-19T06:49:07;12.20;85.40
43987;DHT22;29650;47.378;8.300;2023-05-19T06:51:34;12.30;86.30
43987;DHT22;29650;47.378;8.300;2023-05-19T06:54:02;12.00;83.80
43987;DHT22;29650;47.378;8.300;2023-05-19T06:56:30;12.30;84.40
43987;DHT22;29650;47.378;8.300;2023-05-19T06:58:57;12.30;82.30
43987;DHT22;29650;47.378;8.300;2023-05-19T07:01:24;12.20;83.30
43987;DHT22;29650;47.378;8.300;2023-05-19T07:04:05;12.30;85.50
43987;DHT22;29650;47.378;8.300;2023-05-19T07:06:36;12.40;85.40
43987;DHT22;29650;47.378;8.300;2023-05-19T07:09:05;12.40;83.10
43987;DHT22;29650;47.378;8.300;2023-05-19T07:11:33;12.30;84.00
43987;DHT22;29650;47.378;8.300;2023-05-19T07:14:14;12.30;83.70
43987;DHT22;29650;47.378;8.300;2023-05-19T07:16:41;12.40;83.80
43987;DHT22;29650;47.378;8.300;2023-05-19T07:19:08;12.50;84.30
43987;DHT22;29650;47.378;8.300;2023-05-19T07:21:35;12.50;82.30
43987;DHT22;29650;47.378;8.300;2023-05-19T07:24:02;12.40;85.10
43987;DHT22;29650;47.378;8.300;2023-05-19T07:26:30;12.50;82.00
43987;DHT22;29650;47.378;8.300;2023-05-19T07:28:57;12.20;82.70
43987;DHT22;29650;47.378;8.300;2023-05-19T07:31:25;12.00;85.90
43987;DHT22;29650;47.378;8.300;2023-05-19T07:34:00;12.00;85.80
43987;DHT22;29650;47.378;8.300;2023-05-19T07:36:27;12.10;85.20
43987;DHT22;29650;47.378;8.300;2023-05-19T07:38:54;12.10;85.40
43987;DHT22;29650;47.378;8.300;2023-05-19T07:41:21;12.20;84.20
43987;DHT22;29650;47.378;8.300;2023-05-19T07:43:50;12.00;85.70
43987;DHT22;29650;47.378;8.300;2023-05-19T07:46:17;12.10;86.60
43987;DHT22;29650;47.378;8.300;2023-05-19T07:48:44;12.20;85.50
43987;DHT22;29650;47.378;8.300;2023-05-19T07:51:15;12.20;83.60
43987;DHT22;29650;47.378;8.300;2023-05-19T07:53:43;12.20;83.70
43987;DHT22;29650;47.378;8.300;2023-05-19T07:56:11;12.10;84.10
43987;DHT22;29650;47.378;8.300;2023-05-19T07:58:38;12.20;83.90
43987;DHT22;29650;47.378;8.300;2023-05-19T08:01:07;12.30;83.60
43987;DHT22;29650;47.378;8.300;2023-05-19T08:03:34;12.30;84.50
43987;DHT22;29650;47.378;8.300;2023-05-19T08:06:01;12.40;84.60
43987;DHT22;29650;47.378;8.300;2023-05-19T08:08:28;12.50;83.80
43987;DHT22;29650;47.378;8.300;2023-05-19T08:11:01;12.80;84.30
43987;DHT22;29650;47.378;8.300;2023-05-19T08:13:27;12.70;82.50
43987;DHT22;29650;47.378;8.300;2023-05-19T08:16:03;12.70;82.80
43987;DHT22;29650;47.378;8.300;2023-05-19T08:18:32;12.70;82.90
43987;DHT22;29650;47.378;8.300;2023-05-19T08:20:59;11.20;82.40
43987;DHT22;29650;47.378;8.300;2023-05-19T08:23:26;12.80;82.70
43987;DHT22;29650;47.378;8.300;2023-05-19T08:25:53;12.90;80.30
43987;DHT22;29650;47.378;8.300;2023-05-19T08:28:21;13.20;81.40
43987;DHT22;29650;47.378;8.300;2023-05-19T08:30:49;13.20;80.70
43987;DHT22;29650;47.378;8.300;2023-05-19T08:33:17;12.90;81.50
43987;DHT22;29650;47.378;8.300;2023-05-19T08:35:47;13.00;82.10
43987;DHT22;29650;47.378;8.300;2023-05-19T08:38:14;12.90;82.00
43987;DHT22;29650;47.378;8.300;2023-05-19T08:40:42;13.00;83.50
43987;DHT22;29650;47.378;8.300;2023-05-19T08:43:11;13.10;82.00
43987;DHT22;29650;47.378;8.300;2023-05-19T08:45:38;12.90;80.50
43987;DHT22;29650;47.378;8.300;2023-05-19T08:48:08;11.90;81.70
43987;DHT22;29650;47.378;8.300;2023-05-19T08:50:38;12.80;83.10
43987;DHT22;29650;47.378;8.300;2023-05-19T08:53:12;12.80;83.30
43987;DHT22;29650;47.378;8.300;2023-05-19T08:55:46;12.90;82.20
43987;DHT22;29650;47.378;8.300;2023-05-19T08:58:19;13.30;81.50
43987;DHT22;29650;47.378;8.300;2023-05-19T09:00:48;13.70;81.60
43987;DHT22;29650;47.378;8.300;2023-05-19T09:03:15;13.40;78.10
43987;DHT22;29650;47.378;8.300;2023-05-19T09:05:43;13.20;79.80
43987;DHT22;29650;47.378;8.300;2023-05-19T09:08:12;13.30;80.10
43987;DHT22;29650;47.378;8.300;2023-05-19T09:10:39;13.30;81.10
43987;DHT22;29650;47.378;8.300;2023-05-19T09:13:06;13.20;82.80
43987;DHT22;29650;47.378;8.300;2023-05-19T09:15:52;13.40;84.00
43987;DHT22;29650;47.378;8.300;2023-05-19T09:18:20;13.80;81.90
43987;DHT22;29650;47.378;8.300;2023-05-19T09:20:49;13.40;81.50
43987;DHT22;29650;47.378;8.300;2023-05-19T09:23:18;13.40;81.70
43987;DHT22;29650;47.378;8.300;2023-05-19T09:25:46;13.60;83.70
43987;DHT22;29650;47.378;8.300;2023-05-19T09:28:14;13.80;82.40
43987;DHT22;29650;47.378;8.300;2023-05-19T09:30:41;13.70;81.50
43987;DHT22;29650;47.378;8.300;2023-05-19T09:33:22;13.80;78.70
43987;DHT22;29650;47.378;8.300;2023-05-19T09:35:49;13.40;77.90
43987;DHT22;29650;47.378;8.300;2023-05-19T09:38:19;13.50;80.20
43987;DHT22;29650;47.378;8.300;2023-05-19T09:43:36;13.50;81.30
43987;DHT22;29650;47.378;8.300;2023-05-19T09:46:04;13.40;79.70
43987;DHT22;29650;47.378;8.300;2023-05-19T09:48:31;13.30;81.30
43987;DHT22;29650;47.378;8.300;2023-05-19T09:51:00;12.80;79.50
43987;DHT22;29650;47.378;8.300;2023-05-19T09:53:29;13.50;79.30
43987;DHT22;29650;47.378;8.300;2023-05-19T09:56:09;13.60;80.80
43987;DHT22;29650;47.378;8.300;2023-05-19T09:58:37;13.80;82.00
43987;DHT22;29650;47.378;8.300;2023-05-19T10:01:07;13.60;80.40
43987;DHT22;29650;47.378;8.300;2023-05-19T10:03:35;13.50;78.90
43987;DHT22;29650;47.378;8.300;2023-05-19T10:06:03;13.80;78.40
43987;DHT22;29650;47.378;8.300;2023-05-19T10:08:33;13.90;80.10
43987;DHT22;29650;47.378;8.300;2023-05-19T10:11:01;13.80;81.00
43987;DHT22;29650;47.378;8.300;2023-05-19T10:13:31;13.70;77.00
43987;DHT22;29650;47.378;8.300;2023-05-19T10:16:00;14.00;79.10
43987;DHT22;29650;47.378;8.300;2023-05-19T10:18:34;14.30;78.30
43987;DHT22;29650;47.378;8.300;2023-05-19T10:21:02;14.20;76.70
43987;DHT22;29650;47.378;8.300;2023-05-19T10:23:38;14.30;76.30
43987;DHT22;29650;47.378;8.300;2023-05-19T10:26:06;14.10;76.40
43987;DHT22;29650;47.378;8.300;2023-05-19T10:28:38;14.30;76.80
43987;DHT22;29650;47.378;8.300;2023-05-19T10:31:08;14.30;77.00
43987;DHT22;29650;47.378;8.300;2023-05-19T10:33:59;14.20;74.30
43987;DHT22;29650;47.378;8.300;2023-05-19T10:36:43;14.20;75.70
43987;DHT22;29650;47.378;8.300;2023-05-19T10:39:17;14.30;76.30
43987;DHT22;29650;47.378;8.300;2023-05-19T10:41:53;14.30;74.60
43987;DHT22;29650;47.378;8.300;2023-05-19T10:44:34;14.70;77.10
43987;DHT22;29650;47.378;8.300;2023-05-19T10:47:06;15.00;76.30
43987;DHT22;29650;47.378;8.300;2023-05-19T10:49:36;15.10;77.20
43987;DHT22;29650;47.378;8.300;2023-05-19T10:52:18;15.10;78.90
43987;DHT22;29650;47.378;8.300;2023-05-19T10:54:49;15.10;71.40
43987;DHT22;29650;47.378;8.300;2023-05-19T10:57:16;14.90;72.20
43987;DHT22;29650;47.378;8.300;2023-05-19T10:59:44;15.00;73.20
43987;DHT22;29650;47.378;8.300;2023-05-19T11:02:41;15.00;76.00
43987;DHT22;29650;47.378;8.300;2023-05-19T11:05:09;15.20;77.00
43987;DHT22;29650;47.378;8.300;2023-05-19T11:07:40;15.30;75.20
43987;DHT22;29650;47.378;8.300;2023-05-19T11:10:10;15.40;71.40
43987;DHT22;29650;47.378;8.300;2023-05-19T11:12:40;15.10;69.80
43987;DHT22;29650;47.378;8.300;2023-05-19T11:15:15;15.30;69.70
43987;DHT22;29650;47.378;8.300;2023-05-19T11:17:47;15.30;68.90
43987;DHT22;29650;47.378;8.300;2023-05-19T11:20:23;15.00;71.00
43987;DHT22;29650;47.378;8.300;2023-05-19T11:23:06;15.30;68.90
43987;DHT22;29650;47.378;8.300;2023-05-19T11:25:45;15.40;72.80
43987;DHT22;29650;47.378;8.300;2023-05-19T11:28:14;15.50;73.90
43987;DHT22;29650;47.378;8.300;2023-05-19T11:30:43;15.30;71.30
43987;DHT22;29650;47.378;8.300;2023-05-19T11:33:11;15.20;72.60
43987;DHT22;29650;47.378;8.300;2023-05-19T11:35:39;15.00;72.30
43987;DHT22;29650;47.378;8.300;2023-05-19T11:38:06;15.00;71.80
43987;DHT22;29650;47.378;8.300;2023-05-19T11:40:33;14.90;72.20
43987;DHT22;29650;47.378;8.300;2023-05-19T11:43:02;14.80;75.20
43987;DHT22;29650;47.378;8.300;2023-05-19T11:45:30;14.60;75.10
43987;DHT22;29650;47.378;8.300;2023-05-19T11:47:58;14.70;75.50
43987;DHT22;29650;47.378;8.300;2023-05-19T11:50:26;15.10;72.20
43987;DHT22;29650;47.378;8.300;2023-05-19T11:52:53;15.30;70.60
43987;DHT22;29650;47.378;8.300;2023-05-19T11:55:21;15.40;70.40
43987;DHT22;29650;47.378;8.300;2023-05-19T11:57:56;15.60;72.90
43987;DHT22;29650;47.378;8.300;2023-05-19T12:00:26;16.10;74.10
43987;DHT22;29650;47.378;8.300;2023-05-19T12:02:53;16.30;69.50
43987;DHT22;29650;47.378;8.300;2023-05-19T12:05:21;16.30;70.90
43987;DHT22;29650;47.378;8.300;2023-05-19T12:07:48;16.40;67.50
43987;DHT22;29650;47.378;8.300;2023-05-19T12:10:16;16.50;68.10
43987;DHT22;29650;47.378;8.300;2023-05-19T12:12:44;16.10;68.80
43987;DHT22;29650;47.378;8.300;2023-05-19T12:15:11;16.20;67.10
43987;DHT22;29650;47.378;8.300;2023-05-19T12:17:40;16.40;66.00
43987;DHT22;29650;47.378;8.300;2023-05-19T12:20:08;16.60;67.90
43987;DHT22;29650;47.378;8.300;2023-05-19T12:22:37;16.90;66.40
43987;DHT22;29650;47.378;8.300;2023-05-19T12:25:04;17.20;71.80
43987;DHT22;29650;47.378;8.300;2023-05-19T12:27:34;17.50;69.20
43987;DHT22;29650;47.378;8.300;2023-05-19T12:30:03;17.70;68.60
43987;DHT22;29650;47.378;8.300;2023-05-19T12:32:32;17.50;65.10
43987;DHT22;29650;47.378;8.300;2023-05-19T12:35:03;18.00;63.60
43987;DHT22;29650;47.378;8.300;2023-05-19T12:37:31;17.60;62.60
43987;DHT22;29650;47.378;8.300;2023-05-19T12:39:59;17.50;66.50
43987;DHT22;29650;47.378;8.300;2023-05-19T12:42:28;17.50;62.50
43987;DHT22;29650;47.378;8.300;2023-05-19T12:44:57;17.40;65.40
43987;DHT22;29650;47.378;8.300;2023-05-19T12:47:29;17.20;68.20
43987;DHT22;29650;47.378;8.300;2023-05-19T12:50:03;17.20;67.40
43987;DHT22;29650;47.378;8.300;2023-05-19T12:52:31;17.20;65.30
43987;DHT22;29650;47.378;8.300;2023-05-19T12:55:01;17.30;63.30
43987;DHT22;29650;47.378;8.300;2023-05-19T12:57:29;17.30;62.30
43987;DHT22;29650;47.378;8.300;2023-05-19T13:00:00;17.30;64.90
43987;DHT22;29650;47.378;8.300;2023-05-19T13:02:33;17.30;63.50
43987;DHT22;29650;47.378;8.300;2023-05-19T13:05:00;17.50;64.50
43987;DHT22;29650;47.378;8.300;2023-05-19T13:07:28;17.50;61.80
43987;DHT22;29650;47.378;8.300;2023-05-19T13:09:55;17.40;60.30
43987;DHT22;29650;47.378;8.300;2023-05-19T13:12:22;17.50;61.90
43987;DHT22;29650;47.378;8.300;2023-05-19T13:14:49;17.50;62.20
43987;DHT22;29650;47.378;8.300;2023-05-19T13:17:16;17.50;63.90
43987;DHT22;29650;47.378;8.300;2023-05-19T13:19:43;17.30;65.90
43987;DHT22;29650;47.378;8.300;2023-05-19T13:22:10;17.50;64.80
43987;DHT22;29650;47.378;8.300;2023-05-19T13:24:39;17.40;64.20
43987;DHT22;29650;47.378;8.300;2023-05-19T13:27:06;17.20;65.90
43987;DHT22;29650;47.378;8.300;2023-05-19T13:29:33;17.10;66.40
43987;DHT22;29650;47.378;8.300;2023-05-19T13:31:59;17.10;67.80
43987;DHT22;29650;47.378;8.300;2023-05-19T13:34:26;16.90;66.80
43987;DHT22;29650;47.378;8.300;2023-05-19T13:36:53;16.90;65.10
43987;DHT22;29650;47.378;8.300;2023-05-19T13:39:21;16.80;63.80
43987;DHT22;29650;47.378;8.300;2023-05-19T13:41:49;17.10;63.50
43987;DHT22;29650;47.378;8.300;2023-05-19T13:44:16;17.20;62.10
43987;DHT22;29650;47.378;8.300;2023-05-19T13:46:43;17.20;63.20
43987;DHT22;29650;47.378;8.300;2023-05-19T13:49:10;17.20;63.80
43987;DHT22;29650;47.378;8.300;2023-05-19T13:51:40;17.60;62.70
43987;DHT22;29650;47.378;8.300;2023-05-19T13:54:07;17.20;62.00
43987;DHT22;29650;47.378;8.300;2023-05-19T13:56:34;17.30;63.70
43987;DHT22;29650;47.378;8.300;2023-05-19T13:59:02;17.00;63.30
43987;DHT22;29650;47.378;8.300;2023-05-19T14:01:29;17.00;64.70
43987;DHT22;29650;47.378;8.300;2023-05-19T14:03:57;16.70;66.60
43987;DHT22;29650;47.378;8.300;2023-05-19T14:06:24;16.80;66.60
43987;DHT22;29650;47.378;8.300;2023-05-19T14:08:52;16.90;67.10
43987;DHT22;29650;47.378;8.300;2023-05-19T14:11:19;16.60;66.40
43987;DHT22;29650;47.378;8.300;2023-05-19T14:13:47;16.50;65.40
43987;DHT22;29650;47.378;8.300;2023-05-19T14:16:16;16.40;67.70
43987;DHT22;29650;47.378;8.300;2023-05-19T14:18:43;16.30;68.00
43987;DHT22;29650;47.378;8.300;2023-05-19T14:21:10;16.40;67.80
43987;DHT22;29650;47.378;8.300;2023-05-19T14:23:37;16.40;67.90
43987;DHT22;29650;47.378;8.300;2023-05-19T14:26:04;16.40;67.90
43987;DHT22;29650;47.378;8.300;2023-05-19T14:28:31;16.30;67.10
43987;DHT22;29650;47.378;8.300;2023-05-19T14:30:58;16.40;67.60
43987;DHT22;29650;47.378;8.300;2023-05-19T14:33:26;16.50;67.50
43987;DHT22;29650;47.378;8.300;2023-05-19T14:35:53;16.40;67.30
43987;DHT22;29650;47.378;8.300;2023-05-19T14:38:24;16.40;65.90
43987;DHT22;29650;47.378;8.300;2023-05-19T14:40:51;16.30;67.90
43987;DHT22;29650;47.378;8.300;2023-05-19T14:43:18;16.30;66.60
43987;DHT22;29650;47.378;8.300;2023-05-19T14:45:45;15.70;65.80
43987;DHT22;29650;47.378;8.300;2023-05-19T14:48:12;16.30;66.50
43987;DHT22;29650;47.378;8.300;2023-05-19T14:50:40;16.20;67.10
43987;DHT22;29650;47.378;8.300;2023-05-19T14:53:07;16.30;67.40
43987;DHT22;29650;47.378;8.300;2023-05-19T14:55:34;16.10;67.40
43987;DHT22;29650;47.378;8.300;2023-05-19T14:58:01;16.10;67.80
43987;DHT22;29650;47.378;8.300;2023-05-19T15:00:28;16.10;67.50
43987;DHT22;29650;47.378;8.300;2023-05-19T15:02:55;16.20;66.00
43987;DHT22;29650;47.378;8.300;2023-05-19T15:05:22;16.20;67.60
43987;DHT22;29650;47.378;8.300;2023-05-19T15:07:51;16.10;69.10
43987;DHT22;29650;47.378;8.300;2023-05-19T15:10:18;16.00;68.30
43987;DHT22;29650;47.378;8.300;2023-05-19T15:12:45;16.00;69.20
43987;DHT22;29650;47.378;8.300;2023-05-19T15:15:12;16.10;68.70
43987;DHT22;29650;47.378;8.300;2023-05-19T15:17:40;16.00;69.70
43987;DHT22;29650;47.378;8.300;2023-05-19T15:20:07;16.10;68.90
43987;DHT22;29650;47.378;8.300;2023-05-19T15:22:34;16.20;69.10
43987;DHT22;29650;47.378;8.300;2023-05-19T15:25:03;16.10;68.80
43987;DHT22;29650;47.378;8.300;2023-05-19T15:27:30;16.10;69.80
43987;DHT22;29650;47.378;8.300;2023-05-19T15:29:57;16.00;67.90
43987;DHT22;29650;47.378;8.300;2023-05-19T15:32:24;16.00;69.20
43987;DHT22;29650;47.378;8.300;2023-05-19T15:34:51;16.50;75.90
43987;DHT22;29650;47.378;8.300;2023-05-19T15:37:17;16.10;68.50
43987;DHT22;29650;47.378;8.300;2023-05-19T15:39:44;16.10;67.50
43987;DHT22;29650;47.378;8.300;2023-05-19T15:42:13;16.20;66.20
43987;DHT22;29650;47.378;8.300;2023-05-19T15:44:40;16.10;65.40
43987;DHT22;29650;47.378;8.300;2023-05-19T15:47:07;16.10;66.70
43987;DHT22;29650;47.378;8.300;2023-05-19T15:49:33;16.20;66.60
43987;DHT22;29650;47.378;8.300;2023-05-19T15:52:00;16.20;66.30
43987;DHT22;29650;47.378;8.300;2023-05-19T15:54:28;16.10;65.80
43987;DHT22;29650;47.378;8.300;2023-05-19T15:56:55;16.10;67.70
43987;DHT22;29650;47.378;8.300;2023-05-19T15:59:24;16.00;67.60
43987;DHT22;29650;47.378;8.300;2023-05-19T16:01:51;15.90;68.00